sensor_id;sensor_type;location;lat;lon;timestamp;temperature;humidity
1091;DHT22;534;48.704;9.122;2023-02-28T04:02:49;-0.10;73.40
1091;DHT22;534;48.704;9.122;2023-02-28T04:05:18;0.10;73.30
1091;DHT22;534;48.704;9.122;2023-02-28T04:07:45;0.20;72.70
1091;DHT22;534;48.704;9.122;2023-02-28T04:10:12;0.20;72.50
1091;DHT22;534;48.704;9.122;2023-02-28T04:12:39;0.20;72.50
1091;DHT22;534;48.704;9.122;2023-02-28T04:15:07;0.10;72.90
1091;DHT22;534;48.704;9.122;2023-02-28T04:17:34;0.20;73.10
1091;DHT22;534;48.704;9.122;2023-02-28T04:20:02;0.10;73.20
1091;DHT22;534;48.704;9.122;2023-02-28T04:22:35;0.20;73.20
1091;DHT22;534;48.704;9.122;2023-02-28T04:25:01;0.20;72.90
1091;DHT22;534;48.704;9.122;2023-02-28T04:27:28;0.20;72.80
1091;DHT22;534;48.704;9.122;2023-02-28T04:29:55;0.10;73.20
1091;DHT22;534;48.704;9.122;2023-02-28T04:32:21;0.10;73.60
1091;DHT22;534;48.704;9.122;2023-02-28T04:34:48;0.10;73.50
1091;DHT22;534;48.704;9.122;2023-02-28T04:37:16;0.10;73.30
1091;DHT22;534;48.704;9.122;2023-02-28T04:39:43;-0.20;73.80
1091;DHT22;534;48.704;9.122;2023-02-28T04:42:10;-0.30;74.30
1091;DHT22;534;48.704;9.122;2023-02-28T04:44:37;-0.20;74.60
1091;DHT22;534;48.704;9.122;2023-02-28T04:47:04;-0.20;74.60
1091;DHT22;534;48.704;9.122;2023-02-28T04:49:30;-0.10;74.60
1091;DHT22;534;48.704;9.122;2023-02-28T04:51:57;-0.20;74.20
1091;DHT22;534;48.704;9.122;2023-02-28T04:54:25;-0.20;74.60
1091;DHT22;534;48.704;9.122;2023-02-28T04:56:52;-0.20;74.40
1091;DHT22;534;48.704;9.122;2023-02-28T04:59:18;-0.20;74.30
1091;DHT22;534;48.704;9.122;2023-02-28T05:01:47;-0.20;74.50
1091;DHT22;534;48.704;9.122;2023-02-28T05:04:14;-0.30;74.70
1091;DHT22;534;48.704;9.122;2023-02-28T05:06:40;-0.30;74.80
1091;DHT22;534;48.704;9.122;2023-02-28T05:09:07;-0.20;74.80
1091;DHT22;534;48.704;9.122;2023-02-28T05:11:36;-0.50;75.30
1091;DHT22;534;48.704;9.122;2023-02-28T05:14:06;-0.50;75.50
1091;DHT22;534;48.704;9.122;2023-02-28T05:16:33;-0.40;75.50
1091;DHT22;534;48.704;9.122;2023-02-28T05:18:59;-0.40;75.60
1091;DHT22;534;48.704;9.122;2023-02-28T05:21:28;-0.30;75.60
1091;DHT22;534;48.704;9.122;2023-02-28T05:23:57;-0.40;75.80
1091;DHT22;534;48.704;9.122;2023-02-28T05:26:24;-0.40;76.10
1091;DHT22;534;48.704;9.122;2023-02-28T05:28:53;-0.50;76.10
1091;DHT22;534;48.704;9.122;2023-02-28T05:31:20;-0.40;76.10
1091;DHT22;534;48.704;9.122;2023-02-28T05:33:47;-0.30;75.80
1091;DHT22;534;48.704;9.122;2023-02-28T05:36:14;-0.20;76.00
1091;DHT22;534;48.704;9.122;2023-02-28T05:38:40;-0.20;75.30
1091;DHT22;534;48.704;9.122;2023-02-28T05:41:08;-0.30;75.60
1091;DHT22;534;48.704;9.122;2023-02-28T05:43:35;-0.30;76.10
1091;DHT22;534;48.704;9.122;2023-02-28T05:46:04;-0.30;76.20
1091;DHT22;534;48.704;9.122;2023-02-28T05:48:32;-0.20;76.30
1091;DHT22;534;48.704;9.122;2023-02-28T05:50:59;-0.30;76.50
1091;DHT22;534;48.704;9.122;2023-02-28T05:53:25;-0.40;76.60
1091;DHT22;534;48.704;9.122;2023-02-28T05:55:52;-0.40;76.90
1091;DHT22;534;48.704;9.122;2023-02-28T05:58:19;-0.40;77.10
1091;DHT22;534;48.704;9.122;2023-02-28T06:00:46;-0.40;77.00
1091;DHT22;534;48.704;9.122;2023-02-28T06:03:14;-0.50;77.10
1091;DHT22;534;48.704;9.122;2023-02-28T06:05:41;-0.50;77.50
1091;DHT22;534;48.704;9.122;2023-02-28T06:08:08;-0.50;77.40
1091;DHT22;534;48.704;9.122;2023-02-28T06:10:35;-0.50;77.40
1091;DHT22;534;48.704;9.122;2023-02-28T06:13:01;-0.60;78.00
1091;DHT22;534;48.704;9.122;2023-02-28T06:15:29;-0.60;78.10
1091;DHT22;534;48.704;9.122;2023-02-28T06:17:56;-0.70;78.30
1091;DHT22;534;48.704;9.122;2023-02-28T06:20:26;-0.60;78.60
1091;DHT22;534;48.704;9.122;2023-02-28T06:22:54;-0.50;78.50
1091;DHT22;534;48.704;9.122;2023-02-28T06:25:21;-0.50;78.60
1091;DHT22;534;48.704;9.122;2023-02-28T06:27:48;-0.50;78.10
1091;DHT22;534;48.704;9.122;2023-02-28T06:30:15;-0.40;78.40
1091;DHT22;534;48.704;9.122;2023-02-28T06:32:42;-0.40;78.10
1091;DHT22;534;48.704;9.122;2023-02-28T06:35:08;-0.40;78.00
1091;DHT22;534;48.704;9.122;2023-02-28T06:37:36;-0.20;77.80
1091;DHT22;534;48.704;9.122;2023-02-28T06:40:04;-0.30;77.40
1091;DHT22;534;48.704;9.122;2023-02-28T06:42:32;-0.20;77.50
1091;DHT22;534;48.704;9.122;2023-02-28T06:44:58;-0.20;77.40
1091;DHT22;534;48.704;9.122;2023-02-28T06:47:25;-0.10;77.00
1091;DHT22;534;48.704;9.122;2023-02-28T06:49:52;-0.10;76.80
1091;DHT22;534;48.704;9.122;2023-02-28T06:52:19;-0.10;76.50
1091;DHT22;534;48.704;9.122;2023-02-28T06:54:48;0.00;76.50
1091;DHT22;534;48.704;9.122;2023-02-28T06:57:25;-0.10;76.40
1091;DHT22;534;48.704;9.122;2023-02-28T06:59:51;-0.20;76.60
1091;DHT22;534;48.704;9.122;2023-02-28T07:02:18;-0.30;76.80
1091;DHT22;534;48.704;9.122;2023-02-28T07:04:44;-0.10;76.40
1091;DHT22;534;48.704;9.122;2023-02-28T07:07:11;-0.10;75.90
1091;DHT22;534;48.704;9.122;2023-02-28T07:09:38;-0.20;76.30
1091;DHT22;534;48.704;9.122;2023-02-28T07:12:06;-0.20;76.30
1091;DHT22;534;48.704;9.122;2023-02-28T07:14:33;-0.20;76.20
1091;DHT22;534;48.704;9.122;2023-02-28T07:17:00;-0.10;76.00
1091;DHT22;534;48.704;9.122;2023-02-28T07:19:26;-0.10;76.00
1091;DHT22;534;48.704;9.122;2023-02-28T07:21:53;0.00;75.80
1091;DHT22;534;48.704;9.122;2023-02-28T07:24:20;-0.10;75.60
1091;DHT22;534;48.704;9.122;2023-02-28T07:26:49;0.10;75.60
1091;DHT22;534;48.704;9.122;2023-02-28T07:29:17;0.10;74.90
1091;DHT22;534;48.704;9.122;2023-02-28T07:31:43;0.10;74.70
1091;DHT22;534;48.704;9.122;2023-02-28T07:34:12;0.10;74.80
1091;DHT22;534;48.704;9.122;2023-02-28T07:36:38;0.20;74.90
1091;DHT22;534;48.704;9.122;2023-02-28T07:39:05;0.10;74.70
1091;DHT22;534;48.704;9.122;2023-02-28T07:41:34;0.10;74.80
1091;DHT22;534;48.704;9.122;2023-02-28T07:44:04;0.20;74.50
1091;DHT22;534;48.704;9.122;2023-02-28T07:46:33;0.10;74.60
1091;DHT22;534;48.704;9.122;2023-02-28T07:49:01;0.10;74.40
1091;DHT22;534;48.704;9.122;2023-02-28T07:51:28;0.20;74.50
1091;DHT22;534;48.704;9.122;2023-02-28T07:53:55;0.10;73.90
1091;DHT22;534;48.704;9.122;2023-02-28T07:56:22;0.20;75.80
1091;DHT22;534;48.704;9.122;2023-02-28T07:58:49;0.20;74.20
1091;DHT22;534;48.704;9.122;2023-02-28T08:01:16;0.10;74.10
1091;DHT22;534;48.704;9.122;2023-02-28T08:03:46;0.20;74.20
1091;DHT22;534;48.704;9.122;2023-02-28T08:06:16;0.30;74.10
1091;DHT22;534;48.704;9.122;2023-02-28T08:08:43;0.20;74.20
1091;DHT22;534;48.704;9.122;2023-02-28T08:11:10;0.20;73.50
1091;DHT22;534;48.704;9.122;2023-02-28T08:13:37;0.20;73.90
1091;DHT22;534;48.704;9.122;2023-02-28T08:16:04;0.20;73.70
1091;DHT22;534;48.704;9.122;2023-02-28T08:18:32;0.10;74.00
1091;DHT22;534;48.704;9.122;2023-02-28T08:21:05;0.10;74.10
1091;DHT22;534;48.704;9.122;2023-02-28T08:23:32;0.20;73.80
1091;DHT22;534;48.704;9.122;2023-02-28T08:26:00;0.20;74.00
1091;DHT22;534;48.704;9.122;2023-02-28T08:28:27;0.20;73.90
1091;DHT22;534;48.704;9.122;2023-02-28T08:30:54;0.20;73.90
1091;DHT22;534;48.704;9.122;2023-02-28T08:33:21;0.20;73.80
1091;DHT22;534;48.704;9.122;2023-02-28T08:35:48;0.40;73.70
1091;DHT22;534;48.704;9.122;2023-02-28T08:38:16;0.30;73.40
1091;DHT22;534;48.704;9.122;2023-02-28T08:40:42;0.30;73.20
1091;DHT22;534;48.704;9.122;2023-02-28T08:43:09;0.20;73.70
1091;DHT22;534;48.704;9.122;2023-02-28T08:45:36;0.30;73.90
1091;DHT22;534;48.704;9.122;2023-02-28T08:48:03;0.40;73.40
1091;DHT22;534;48.704;9.122;2023-02-28T08:50:30;0.30;73.50
1091;DHT22;534;48.704;9.122;2023-02-28T08:52:56;0.30;73.50
1091;DHT22;534;48.704;9.122;2023-02-28T08:55:25;0.30;73.30
1091;DHT22;534;48.704;9.122;2023-02-28T08:57:51;0.20;73.70
1091;DHT22;534;48.704;9.122;2023-02-28T09:00:21;0.20;73.90
1091;DHT22;534;48.704;9.122;2023-02-28T09:02:48;0.30;74.00
1091;DHT22;534;48.704;9.122;2023-02-28T09:05:15;0.40;73.40
1091;DHT22;534;48.704;9.122;2023-02-28T09:07:41;0.40;74.00
1091;DHT22;534;48.704;9.122;2023-02-28T09:10:09;0.30;73.30
1091;DHT22;534;48.704;9.122;2023-02-28T09:12:37;0.40;73.40
1091;DHT22;534;48.704;9.122;2023-02-28T09:15:05;0.60;73.10
1091;DHT22;534;48.704;9.122;2023-02-28T09:17:32;0.70;73.10
1091;DHT22;534;48.704;9.122;2023-02-28T09:19:59;0.50;72.80
1091;DHT22;534;48.704;9.122;2023-02-28T09:22:25;0.40;72.90
1091;DHT22;534;48.704;9.122;2023-02-28T09:24:52;0.40;73.60
1091;DHT22;534;48.704;9.122;2023-02-28T09:27:19;0.60;73.20
1091;DHT22;534;48.704;9.122;2023-02-28T09:29:47;0.70;72.60
1091;DHT22;534;48.704;9.122;2023-02-28T09:32:14;0.70;72.20
1091;DHT22;534;48.704;9.122;2023-02-28T09:34:42;0.70;72.40
1091;DHT22;534;48.704;9.122;2023-02-28T09:37:09;0.80;72.20
1091;DHT22;534;48.704;9.122;2023-02-28T09:39:36;0.60;72.20
1091;DHT22;534;48.704;9.122;2023-02-28T09:42:03;0.70;72.30
1091;DHT22;534;48.704;9.122;2023-02-28T09:44:32;0.60;72.40
1091;DHT22;534;48.704;9.122;2023-02-28T09:47:07;0.60;72.20
1091;DHT22;534;48.704;9.122;2023-02-28T09:49:40;0.50;72.40
1091;DHT22;534;48.704;9.122;2023-02-28T09:52:12;0.60;72.80
1091;DHT22;534;48.704;9.122;2023-02-28T09:54:40;0.60;72.40
1091;DHT22;534;48.704;9.122;2023-02-28T09:57:09;0.60;72.40
1091;DHT22;534;48.704;9.122;2023-02-28T09:59:54;0.60;72.70
1091;DHT22;534;48.704;9.122;2023-02-28T10:02:46;0.50;73.00
1091;DHT22;534;48.704;9.122;2023-02-28T10:05:17;0.60;72.40
1091;DHT22;534;48.704;9.122;2023-02-28T10:07:55;0.70;72.20
1091;DHT22;534;48.704;9.122;2023-02-28T10:10:27;0.80;72.30
1091;DHT22;534;48.704;9.122;2023-02-28T10:12:56;0.80;71.80
1091;DHT22;534;48.704;9.122;2023-02-28T10:15:26;0.70;71.40
1091;DHT22;534;48.704;9.122;2023-02-28T10:17:58;0.70;71.50
1091;DHT22;534;48.704;9.122;2023-02-28T10:20:27;0.80;72.10
1091;DHT22;534;48.704;9.122;2023-02-28T10:23:00;0.90;71.70
1091;DHT22;534;48.704;9.122;2023-02-28T10:25:34;1.00;71.10
1091;DHT22;534;48.704;9.122;2023-02-28T10:28:09;1.10;70.90
1091;DHT22;534;48.704;9.122;2023-02-28T10:30:38;1.10;70.60
1091;DHT22;534;48.704;9.122;2023-02-28T10:33:17;1.20;69.90
1091;DHT22;534;48.704;9.122;2023-02-28T10:35:45;1.20;69.40
1091;DHT22;534;48.704;9.122;2023-02-28T10:38:16;1.20;69.30
1091;DHT22;534;48.704;9.122;2023-02-28T10:40:44;1.30;69.00
1091;DHT22;534;48.704;9.122;2023-02-28T10:43:20;1.40;68.70
1091;DHT22;534;48.704;9.122;2023-02-28T10:46:00;1.50;68.90
1091;DHT22;534;48.704;9.122;2023-02-28T10:48:33;1.50;68.40
1091;DHT22;534;48.704;9.122;2023-02-28T10:51:01;1.50;68.40
1091;DHT22;534;48.704;9.122;2023-02-28T10:53:33;1.50;67.80
1091;DHT22;534;48.704;9.122;2023-02-28T10:56:02;1.60;68.30
1091;DHT22;534;48.704;9.122;2023-02-28T10:58:31;1.70;67.60
1091;DHT22;534;48.704;9.122;2023-02-28T11:00:59;1.80;67.40
1091;DHT22;534;48.704;9.122;2023-02-28T11:03:32;1.90;67.00
1091;DHT22;534;48.704;9.122;2023-02-28T11:06:05;2.10;67.20
1091;DHT22;534;48.704;9.122;2023-02-28T11:08:32;2.00;66.30
1091;DHT22;534;48.704;9.122;2023-02-28T11:11:04;1.90;66.90
1091;DHT22;534;48.704;9.122;2023-02-28T11:13:33;2.00;66.90
1091;DHT22;534;48.704;9.122;2023-02-28T11:16:03;2.10;66.70
1091;DHT22;534;48.704;9.122;2023-02-28T11:18:37;2.30;66.20
1091;DHT22;534;48.704;9.122;2023-02-28T11:21:05;2.50;66.70
1091;DHT22;534;48.704;9.122;2023-02-28T11:23:34;2.60;65.10
1091;DHT22;534;48.704;9.122;2023-02-28T11:26:03;2.70;66.30
1091;DHT22;534;48.704;9.122;2023-02-28T11:28:36;2.90;64.90
1091;DHT22;534;48.704;9.122;2023-02-28T11:31:15;2.90;64.10
1091;DHT22;534;48.704;9.122;2023-02-28T11:33:47;2.90;64.30
1091;DHT22;534;48.704;9.122;2023-02-28T11:36:18;3.00;63.80
1091;DHT22;534;48.704;9.122;2023-02-28T11:38:46;2.90;63.80
1091;DHT22;534;48.704;9.122;2023-02-28T11:41:33;2.90;64.70
1091;DHT22;534;48.704;9.122;2023-02-28T11:44:14;3.00;64.80
1091;DHT22;534;48.704;9.122;2023-02-28T11:46:47;3.50;65.30
1091;DHT22;534;48.704;9.122;2023-02-28T11:49:27;3.80;63.70
1091;DHT22;534;48.704;9.122;2023-02-28T11:52:00;3.90;62.70
1091;DHT22;534;48.704;9.122;2023-02-28T11:54:48;4.00;62.00
1091;DHT22;534;48.704;9.122;2023-02-28T11:57:31;4.20;62.20
1091;DHT22;534;48.704;9.122;2023-02-28T12:00:04;4.50;61.40
1091;DHT22;534;48.704;9.122;2023-02-28T12:02:39;4.80;61.20
1091;DHT22;534;48.704;9.122;2023-02-28T12:05:24;5.10;60.20
1091;DHT22;534;48.704;9.122;2023-02-28T12:08:06;5.10;59.50
1091;DHT22;534;48.704;9.122;2023-02-28T12:10:48;4.90;59.70
1091;DHT22;534;48.704;9.122;2023-02-28T12:13:23;4.70;59.70
1091;DHT22;534;48.704;9.122;2023-02-28T12:16:20;4.90;60.50
1091;DHT22;534;48.704;9.122;2023-02-28T12:19:00;5.30;58.70
1091;DHT22;534;48.704;9.122;2023-02-28T12:21:43;5.20;58.90
1091;DHT22;534;48.704;9.122;2023-02-28T12:24:44;5.40;58.20
1091;DHT22;534;48.704;9.122;2023-02-28T12:27:15;5.20;58.60
1091;DHT22;534;48.704;9.122;2023-02-28T12:29:47;5.50;59.00
1091;DHT22;534;48.704;9.122;2023-02-28T12:32:20;5.60;57.90
1091;DHT22;534;48.704;9.122;2023-02-28T12:34:50;5.60;57.90
1091;DHT22;534;48.704;9.122;2023-02-28T12:37:27;5.90;57.60
1091;DHT22;534;48.704;9.122;2023-02-28T12:40:00;6.10;56.40
1091;DHT22;534;48.704;9.122;2023-02-28T12:42:31;5.80;56.80
1091;DHT22;534;48.704;9.122;2023-02-28T12:45:02;5.80;56.80
1091;DHT22;534;48.704;9.122;2023-02-28T12:47:32;5.50;57.40
1091;DHT22;534;48.704;9.122;2023-02-28T12:50:02;5.40;57.40
1091;DHT22;534;48.704;9.122;2023-02-28T12:52:37;5.50;57.80
1091;DHT22;534;48.704;9.122;2023-02-28T12:55:13;5.70;57.10
1091;DHT22;534;48.704;9.122;2023-02-28T12:57:46;6.00;57.10
1091;DHT22;534;48.704;9.122;2023-02-28T13:00:17;6.50;55.80
1091;DHT22;534;48.704;9.122;2023-02-28T13:06:10;6.40;54.90
1091;DHT22;534;48.704;9.122;2023-02-28T13:09:00;6.50;55.90
1091;DHT22;534;48.704;9.122;2023-02-28T13:11:29;6.80;55.70
1091;DHT22;534;48.704;9.122;2023-02-28T13:13:59;6.90;54.80
1091;DHT22;534;48.704;9.122;2023-02-28T13:16:26;7.10;54.20
1091;DHT22;534;48.704;9.122;2023-02-28T13:19:08;7.20;54.00
1091;DHT22;534;48.704;9.122;2023-02-28T13:21:43;7.20;53.80
1091;DHT22;534;48.704;9.122;2023-02-28T13:24:42;7.30;53.60
1091;DHT22;534;48.704;9.122;2023-02-28T13:27:23;7.30;53.70
1091;DHT22;534;48.704;9.122;2023-02-28T13:29:51;7.60;52.90
1091;DHT22;534;48.704;9.122;2023-02-28T13:32:42;7.30;53.00
1091;DHT22;534;48.704;9.122;2023-02-28T13:38:21;7.40;53.70
1091;DHT22;534;48.704;9.122;2023-02-28T13:40:50;7.70;53.10
1091;DHT22;534;48.704;9.122;2023-02-28T13:43:17;8.10;52.50
1091;DHT22;534;48.704;9.122;2023-02-28T13:46:10;8.20;51.90
1091;DHT22;534;48.704;9.122;2023-02-28T13:48:38;8.40;51.50
1091;DHT22;534;48.704;9.122;2023-02-28T13:51:37;9.00;50.30
1091;DHT22;534;48.704;9.122;2023-02-28T13:54:29;9.80;49.90
1091;DHT22;534;48.704;9.122;2023-02-28T13:57:12;10.60;47.30
1091;DHT22;534;48.704;9.122;2023-02-28T13:59:50;11.60;46.30
1091;DHT22;534;48.704;9.122;2023-02-28T14:02:36;13.70;43.30
1091;DHT22;534;48.704;9.122;2023-02-28T14:05:14;15.20;39.00
1091;DHT22;534;48.704;9.122;2023-02-28T14:07:45;14.40;39.30
1091;DHT22;534;48.704;9.122;2023-02-28T14:10:23;14.50;39.50
1091;DHT22;534;48.704;9.122;2023-02-28T14:12:58;14.60;39.60
1091;DHT22;534;48.704;9.122;2023-02-28T14:15:38;16.10;38.00
1091;DHT22;534;48.704;9.122;2023-02-28T14:18:14;17.10;35.70
1091;DHT22;534;48.704;9.122;2023-02-28T14:20:43;16.70;36.00
1091;DHT22;534;48.704;9.122;2023-02-28T14:23:19;15.60;37.10
1091;DHT22;534;48.704;9.122;2023-02-28T14:25:55;15.10;38.00
1091;DHT22;534;48.704;9.122;2023-02-28T14:28:46;15.50;37.80
1091;DHT22;534;48.704;9.122;2023-02-28T14:31:18;16.50;36.60
1091;DHT22;534;48.704;9.122;2023-02-28T14:34:01;17.20;35.90
1091;DHT22;534;48.704;9.122;2023-02-28T14:36:32;18.00;35.20
1091;DHT22;534;48.704;9.122;2023-02-28T14:39:04;18.10;34.40
1091;DHT22;534;48.704;9.122;2023-02-28T14:41:33;17.80;35.30
1091;DHT22;534;48.704;9.122;2023-02-28T14:44:14;17.50;34.90
1091;DHT22;534;48.704;9.122;2023-02-28T14:46:42;16.50;35.50
1091;DHT22;534;48.704;9.122;2023-02-28T14:49:15;16.10;36.30
1091;DHT22;534;48.704;9.122;2023-02-28T14:51:43;15.40;37.70
1091;DHT22;534;48.704;9.122;2023-02-28T14:54:15;15.50;37.60
1091;DHT22;534;48.704;9.122;2023-02-28T14:56:42;15.70;37.50
1091;DHT22;534;48.704;9.122;2023-02-28T14:59:26;15.60;37.20
1091;DHT22;534;48.704;9.122;2023-02-28T15:02:16;15.60;37.20
1091;DHT22;534;48.704;9.122;2023-02-28T15:04:42;15.20;38.30
1091;DHT22;534;48.704;9.122;2023-02-28T15:07:10;15.80;37.30
1091;DHT22;534;48.704;9.122;2023-02-28T15:09:37;16.20;36.70
1091;DHT22;534;48.704;9.122;2023-02-28T15:12:04;16.50;36.10
1091;DHT22;534;48.704;9.122;2023-02-28T15:14:34;16.50;36.20
1091;DHT22;534;48.704;9.122;2023-02-28T15:17:08;16.20;36.30
1091;DHT22;534;48.704;9.122;2023-02-28T15:19:39;16.60;36.20
1091;DHT22;534;48.704;9.122;2023-02-28T15:22:12;16.40;35.70
1091;DHT22;534;48.704;9.122;2023-02-28T15:24:42;15.80;36.90
1091;DHT22;534;48.704;9.122;2023-02-28T15:27:13;15.50;37.80
1091;DHT22;534;48.704;9.122;2023-02-28T15:29:46;15.60;37.90
1091;DHT22;534;48.704;9.122;2023-02-28T15:32:27;16.00;36.80
1091;DHT22;534;48.704;9.122;2023-02-28T15:34:54;14.10;38.50
1091;DHT22;534;48.704;9.122;2023-02-28T15:37:28;12.10;42.10
1091;DHT22;534;48.704;9.122;2023-02-28T15:39:58;11.20;44.00
1091;DHT22;534;48.704;9.122;2023-02-28T15:42:28;10.70;45.30
1091;DHT22;534;48.704;9.122;2023-02-28T15:44:58;10.20;45.90
1091;DHT22;534;48.704;9.122;2023-02-28T15:47:27;9.70;47.10
1091;DHT22;534;48.704;9.122;2023-02-28T15:49:57;8.90;48.60
1091;DHT22;534;48.704;9.122;2023-02-28T15:52:28;8.30;50.20
1091;DHT22;534;48.704;9.122;2023-02-28T15:54:57;8.00;51.10
1091;DHT22;534;48.704;9.122;2023-02-28T15:57:27;7.60;52.20
1091;DHT22;534;48.704;9.122;2023-02-28T15:59:56;7.10;53.20
1091;DHT22;534;48.704;9.122;2023-02-28T16:02:32;6.70;54.20
1091;DHT22;534;48.704;9.122;2023-02-28T16:05:19;6.40;54.60
1091;DHT22;534;48.704;9.122;2023-02-28T16:07:50;6.20;55.30
1091;DHT22;534;48.704;9.122;2023-02-28T16:10:17;6.20;55.60
1091;DHT22;534;48.704;9.122;2023-02-28T16:12:44;6.00;56.00
1091;DHT22;534;48.704;9.122;2023-02-28T16:15:19;6.00;56.40
1091;DHT22;534;48.704;9.122;2023-02-28T16:17:48;5.90;56.50
1091;DHT22;534;48.704;9.122;2023-02-28T16:20:16;5.80;56.80
1091;DHT22;534;48.704;9.122;2023-02-28T16:22:43;5.80;56.90
1091;DHT22;534;48.704;9.122;2023-02-28T16:25:12;5.70;57.50
1091;DHT22;534;48.704;9.122;2023-02-28T16:27:39;5.90;57.30
1091;DHT22;534;48.704;9.122;2023-02-28T16:30:09;5.90;56.80
1091;DHT22;534;48.704;9.122;2023-02-28T16:32:40;5.80;57.30
1091;DHT22;534;48.704;9.122;2023-02-28T16:35:10;5.70;57.70
1091;DHT22;534;48.704;9.122;2023-02-28T16:37:39;5.60;58.10
1091;DHT22;534;48.704;9.122;2023-02-28T16:40:09;5.70;58.00
1091;DHT22;534;48.704;9.122;2023-02-28T16:42:40;5.70;58.10
1091;DHT22;534;48.704;9.122;2023-02-28T16:45:15;5.60;58.30
1091;DHT22;534;48.704;9.122;2023-02-28T16:47:42;5.50;58.60
1091;DHT22;534;48.704;9.122;2023-02-28T16:50:15;5.20;59.10
1091;DHT22;534;48.704;9.122;2023-02-28T16:52:42;5.10;59.50
1091;DHT22;534;48.704;9.122;2023-02-28T16:55:09;5.00;59.50
1091;DHT22;534;48.704;9.122;2023-02-28T16:57:36;5.00;59.70
1091;DHT22;534;48.704;9.122;2023-02-28T17:00:05;4.90;60.00
1091;DHT22;534;48.704;9.122;2023-02-28T17:02:33;4.90;60.10
1091;DHT22;534;48.704;9.122;2023-02-28T17:05:00;5.00;59.90
1091;DHT22;534;48.704;9.122;2023-02-28T17:07:29;5.00;59.80
1091;DHT22;534;48.704;9.122;2023-02-28T17:09:56;5.10;59.70
1091;DHT22;534;48.704;9.122;2023-02-28T17:12:22;5.10;59.70
1091;DHT22;534;48.704;9.122;2023-02-28T17:14:49;4.90;60.00
1091;DHT22;534;48.704;9.122;2023-02-28T17:17:18;4.70;60.60
1091;DHT22;534;48.704;9.122;2023-02-28T17:19:46;4.80;60.60
1091;DHT22;534;48.704;9.122;2023-02-28T17:22:13;4.90;60.30
1091;DHT22;534;48.704;9.122;2023-02-28T17:24:41;4.90;60.20
1091;DHT22;534;48.704;9.122;2023-02-28T17:27:10;5.00;60.00
1091;DHT22;534;48.704;9.122;2023-02-28T17:29:37;5.10;59.80
1091;DHT22;534;48.704;9.122;2023-02-28T17:32:04;4.90;60.00
1091;DHT22;534;48.704;9.122;2023-02-28T17:34:31;5.00;60.20
1091;DHT22;534;48.704;9.122;2023-02-28T17:36:57;4.90;60.10
1091;DHT22;534;48.704;9.122;2023-02-28T17:39:24;4.80;60.40
1091;DHT22;534;48.704;9.122;2023-02-28T17:41:52;4.80;60.60
1091;DHT22;534;48.704;9.122;2023-02-28T17:44:19;4.90;60.30
1091;DHT22;534;48.704;9.122;2023-02-28T17:46:47;4.90;60.10
1091;DHT22;534;48.704;9.122;2023-02-28T17:49:15;4.90;60.30
1091;DHT22;534;48.704;9.122;2023-02-28T17:51:42;4.90;60.10
1091;DHT22;534;48.704;9.122;2023-02-28T17:54:09;4.90;60.20
1091;DHT22;534;48.704;9.122;2023-02-28T17:56:35;4.90;60.10
1091;DHT22;534;48.704;9.122;2023-02-28T17:59:04;4.90;60.40
1091;DHT22;534;48.704;9.122;2023-02-28T18:01:30;4.90;60.50
1091;DHT22;534;48.704;9.122;2023-02-28T18:03:57;4.90;60.30
1091;DHT22;534;48.704;9.122;2023-02-28T18:06:25;4.90;60.20
1091;DHT22;534;48.704;9.122;2023-02-28T18:08:53;5.00;60.20
1091;DHT22;534;48.704;9.122;2023-02-28T18:11:22;5.00;59.80
1091;DHT22;534;48.704;9.122;2023-02-28T18:13:50;5.00;59.90
1091;DHT22;534;48.704;9.122;2023-02-28T18:16:20;5.00;60.10
1091;DHT22;534;48.704;9.122;2023-02-28T18:18:47;5.00;59.90
1091;DHT22;534;48.704;9.122;2023-02-28T18:21:15;4.90;59.90
1091;DHT22;534;48.704;9.122;2023-02-28T18:23:43;5.00;60.10
1091;DHT22;534;48.704;9.122;2023-02-28T18:26:13;5.00;59.90
1091;DHT22;534;48.704;9.122;2023-02-28T18:28:40;5.00;60.00
1091;DHT22;534;48.704;9.122;2023-02-28T18:31:09;4.90;59.90
1091;DHT22;534;48.704;9.122;2023-02-28T18:33:38;4.90;60.10
1091;DHT22;534;48.704;9.122;2023-02-28T18:36:05;4.70;60.40
1091;DHT22;534;48.704;9.122;2023-02-28T18:38:32;4.80;60.20
1091;DHT22;534;48.704;9.122;2023-02-28T18:41:00;4.80;60.20
1091;DHT22;534;48.704;9.122;2023-02-28T18:43:28;4.90;60.10
1091;DHT22;534;48.704;9.122;2023-02-28T18:45:55;4.80;60.00
1091;DHT22;534;48.704;9.122;2023-02-28T18:48:22;4.90;60.00
1091;DHT22;534;48.704;9.122;2023-02-28T18:50:51;4.90;60.00
1091;DHT22;534;48.704;9.122;2023-02-28T18:53:17;4.90;60.00
1091;DHT22;534;48.704;9.122;2023-02-28T18:55:44;4.90;60.00
1091;DHT22;534;48.704;9.122;2023-02-28T18:58:11;4.90;60.00
1091;DHT22;534;48.704;9.122;2023-02-28T19:00:39;4.90;59.70
1091;DHT22;534;48.704;9.122;2023-02-28T19:03:05;4.90;59.90
1091;DHT22;534;48.704;9.122;2023-02-28T19:05:32;5.00;59.70
1091;DHT22;534;48.704;9.122;2023-02-28T19:08:01;5.00;59.50
1091;DHT22;534;48.704;9.122;2023-02-28T19:10:28;5.00;59.50
1091;DHT22;534;48.704;9.122;2023-02-28T19:12:54;5.10;59.30
1091;DHT22;534;48.704;9.122;2023-02-28T19:15:21;5.00;59.50
1091;DHT22;534;48.704;9.122;2023-02-28T19:17:48;5.00;59.40
1091;DHT22;534;48.704;9.122;2023-02-28T19:20:16;5.10;59.20
1091;DHT22;534;48.704;9.122;2023-02-28T19:22:42;5.10;59.10
1091;DHT22;534;48.704;9.122;2023-02-28T19:25:10;5.00;59.20
1091;DHT22;534;48.704;9.122;2023-02-28T19:27:37;5.00;59.20
1091;DHT22;534;48.704;9.122;2023-02-28T19:30:05;5.10;59.00
1091;DHT22;534;48.704;9.122;2023-02-28T19:32:32;5.10;59.00
1091;DHT22;534;48.704;9.122;2023-02-28T19:34:59;5.00;59.20
1091;DHT22;534;48.704;9.122;2023-02-28T19:37:27;5.00;59.20
1091;DHT22;534;48.704;9.122;2023-02-28T19:39:53;5.00;59.10
1091;DHT22;534;48.704;9.122;2023-02-28T19:42:23;5.00;59.30
1091;DHT22;534;48.704;9.122;2023-02-28T19:44:52;5.00;59.20
1091;DHT22;534;48.704;9.122;2023-02-28T19:47:19;5.00;59.10
1091;DHT22;534;48.704;9.122;2023-02-28T19:49:46;5.00;59.20
1091;DHT22;534;48.704;9.122;2023-02-28T19:52:12;5.00;59.10
1091;DHT22;534;48.704;9.122;2023-02-28T19:54:39;5.00;59.00
1091;DHT22;534;48.704;9.122;2023-02-28T19:57:06;5.00;59.20
1091;DHT22;534;48.704;9.122;2023-02-28T19:59:34;5.00;59.10
1091;DHT22;534;48.704;9.122;2023-02-28T20:02:01;4.90;59.20
1091;DHT22;534;48.704;9.122;2023-02-28T20:04:27;4.90;59.30
1091;DHT22;534;48.704;9.122;2023-02-28T20:06:54;4.90;59.40
1091;DHT22;534;48.704;9.122;2023-02-28T20:09:21;4.90;59.50
1091;DHT22;534;48.704;9.122;2023-02-28T20:11:47;4.90;59.50
1091;DHT22;534;48.704;9.122;2023-02-28T20:14:15;4.80;59.60
1091;DHT22;534;48.704;9.122;2023-02-28T20:16:44;4.90;59.60
1091;DHT22;534;48.704;9.122;2023-02-28T20:19:10;4.90;59.50
1091;DHT22;534;48.704;9.122;2023-02-28T20:21:37;4.90;59.60
1091;DHT22;534;48.704;9.122;2023-02-28T20:24:06;4.90;59.70
1091;DHT22;534;48.704;9.122;2023-02-28T20:26:32;4.90;59.90
1091;DHT22;534;48.704;9.122;2023-02-28T20:28:59;4.90;59.60
1091;DHT22;534;48.704;9.122;2023-02-28T20:31:26;4.80;60.00
1091;DHT22;534;48.704;9.122;2023-02-28T20:33:54;4.80;60.10
1091;DHT22;534;48.704;9.122;2023-02-28T20:36:21;4.80;60.10
1091;DHT22;534;48.704;9.122;2023-02-28T20:38:49;4.70;60.00
1091;DHT22;534;48.704;9.122;2023-02-28T20:41:16;4.70;60.30
1091;DHT22;534;48.704;9.122;2023-02-28T20:43:43;4.70;60.20
1091;DHT22;534;48.704;9.122;2023-02-28T20:46:10;4.70;60.30
1091;DHT22;534;48.704;9.122;2023-02-28T20:48:37;4.70;60.40
1091;DHT22;534;48.704;9.122;2023-02-28T20:51:05;4.60;60.50
1091;DHT22;534;48.704;9.122;2023-02-28T20:53:33;4.60;60.50
1091;DHT22;534;48.704;9.122;2023-02-28T20:56:02;4.60;60.60